Wednesday, December 12, 2018, 11:12 PM EST
Back to Local

KPYM, Plymouth Municipal Airport

Location: Carver, MA, United States Lat: 41.9
Local Time: 11:12 PM EST ( 4:12 GMT) Lon: -70.733
Time Zone: US/Eastern Elev: 147 ft

Show me the last for .
Show Coded

Time T Td Feel RH Dir Speed Gust Alt SLP Vis Weather Sky Remarks
2018-12-12 22:52 24 7 16 47 320° 7 - 30.31 30.32 10 CLR None
2018-12-12 21:52 24 7 16 47 340° 7 - 30.29 30.30 10 CLR None
2018-12-12 20:52 27 6 19 40 330° 7 - 30.26 30.26 10 CLR None
2018-12-12 19:52 28 9 20 43 10° 8 - 30.23 30.23 10 CLR None
2018-12-12 18:52 29 9 20 42 340° 9 - 30.21 30.21 10 CLR 6-hr Min Temp (7pm): 28.0°F
6-hr Max Temp (7pm): 37.0°F
2018-12-12 17:52 30 12 23 46 320° 7 - 30.17 30.17 10 CLR None
2018-12-12 16:52 31 12 25 44 310° 6 - 30.13 30.13 10 CLR None
2018-12-12 15:52 34 11 23 37 320° 12 18 30.09 30.09 10 CLR None
2018-12-12 14:52 36 12 26 36 320° 8 17 30.06 30.06 10 CLR None
2018-12-12 13:52 37 13 26 36 320° 14 21 30.04 30.04 10 FEW050 None
2018-12-12 12:52 35 15 23 43 320° 16 23 30.03 30.03 10 FEW050 6-hr Min Temp (1pm): 26.1°F
6-hr Max Temp (1pm): 37.9°F
2018-12-12 11:52 37 18 30 45 310° 10 - 30.01 30.02 10 CLR None
2018-12-12 10:52 35 18 26 49 320° 15 - 30.01 30.01 10 CLR None
2018-12-12 09:52 33 19 25 55 320° 9 - 30.01 30.01 10 CLR None
2018-12-12 08:52 31 18 24 58 300° 7 - 30.00 30.00 10 CLR None
2018-12-12 07:52 28 17 21 62 300° 7 - 29.98 29.98 10 OVC080 None
2018-12-12 06:52 26 16 18 65 310° 7 - 29.95 29.95 10 CLR 6-hr Min Temp (7am): 26.1°F
6-hr Max Temp (7am): 30.9°F
2018-12-12 05:52 28 16 21 60 330° 7 - 29.92 29.93 10 CLR None
2018-12-12 04:52 30 17 22 58 310° 8 - 29.89 29.90 10 OVC060 None
2018-12-12 03:52 31 18 23 58 310° 8 - 29.87 29.88 10 OVC060 None
2018-12-12 02:52 31 21 23 66 320° 8 - 29.87 29.88 10 OVC060 None
2018-12-12 01:52 30 26 - 84 - Calm - 29.87 29.87 10 OVC050 None
2018-12-12 00:52 31 26 - 81 - Calm - 29.87 29.88 10 BKN044 OVC060 1-hr Precip Total: Trace
6-hr Precip Total (1am): 0.00"
6-hr Min Temp (1am): 30.0°F
6-hr Max Temp (1am): 32.0°F
2018-12-12 00:24 30 26 - 84 - Calm - 29.88 - 8 FEW014 SCT024 OVC034 1-hr Precip Total: Trace
2018-12-12 00:13 31 26 - 81 - Calm - 29.88 - 3 -SN FEW014 BKN026 OVC036 1-hr Precip Total: Trace
2018-12-11 23:52 31 26 - 81 - Calm - 29.89 29.90 2 -SN OVC018 1-hr Precip Total: Trace
24-hr Min Temp (12am): 15.1°F
24-hr Max Temp (12am): 39.0°F
2018-12-11 23:41 31 25 27 78 330° 3 - 29.90 - 2 -SN FEW014 OVC020 1-hr Precip Total: Trace
2018-12-11 23:32 31 25 - 78 - Calm - 29.90 - 3 -SN FEW014 BKN020 OVC055 1-hr Precip Total: Trace

Support USWX by starting your Amazon purchase here.